Time;durP1;ratioP1;P1;durP2;ratioP2;P2;SDS_P1;SDS_P2;PMS_P1;PMS_P2;Temp;Humidity;BMP_temperature;BMP_pressure;BME280_temperature;BME280_humidity;BME280_pressure;Samples;Min_cycle;Max_cycle;Signal;HPM_P1;HPM_P2
2023/11/03 00:01:45;;;;;;;;;;;;;;;25.15;43.13;91576.31;4983061;28;7351;-87
2023/11/03 00:04:13;;;;;;;;;;;;;;;25.15;43.49;91576.31;4994018;28;7351;-88
2023/11/03 00:06:44;;;;;;;;;;;;;;;25.17;43.42;91576.47;4995990;28;9154;-88
2023/11/03 00:09:14;;;;;;;;;;;;;;;25.17;43.41;91577.19;4994079;28;8910;-89
2023/11/03 00:11:43;;;;;;;;;;;;;;;25.17;43.11;91573.72;4999999;28;7282;-88
2023/11/03 00:14:23;;;;;;;;;;;;;;;25.18;43.70;91573.16;4995301;28;8831;-88
2023/11/03 00:16:50;;;;;;;;;;;;;;;25.13;43.55;91574.16;4991860;28;8769;-87
2023/11/03 00:19:28;;;;;;;;;;;;;;;25.23;43.44;91582.41;4990690;28;7345;-87
2023/11/03 00:21:55;;;;;;;;;;;;;;;25.19;43.45;91577.34;5011750;28;7378;-87
2023/11/03 00:24:37;;;;;;;;;;;;;;;25.12;42.90;91586.44;4994369;28;7287;-87
2023/11/03 00:27:08;;;;;;;;;;;;;;;25.18;42.98;91591.66;4991865;28;8864;-88
2023/11/03 00:29:39;;;;;;;;;;;;;;;25.16;43.01;91591.53;4990359;28;8165;-87
2023/11/03 00:32:23;;;;;;;;;;;;;;;25.15;43.05;91592.81;5010721;28;7685;-90
2023/11/03 00:34:53;;;;;;;;;;;;;;;25.17;42.77;91604.69;4988155;28;8716;-87
2023/11/03 00:37:25;;;;;;;;;;;;;;;25.17;42.67;91601.94;4987196;28;9226;-87
2023/11/03 00:40:07;;;;;;;;;;;;;;;25.16;43.16;91588.78;4993324;28;8847;-88
2023/11/03 00:42:36;;;;;;;;;;;;;;;25.15;42.96;91599.03;4990688;28;7220;-87
2023/11/03 00:45:04;;;;;;;;;;;;;;;25.17;43.07;91596.44;4993250;28;8831;-89
2023/11/03 00:47:35;;;;;;;;;;;;;;;25.18;43.09;91595.16;4994877;28;9195;-87
2023/11/03 00:50:09;;;;;;;;;;;;;;;25.17;43.01;91596.44;4989302;28;7253;-87
2023/11/03 00:52:45;;;;;;;;;;;;;;;25.17;42.92;91595.72;4994680;28;7015;-88
2023/11/03 00:55:11;;;;;;;;;;;;;;;25.13;43.03;91596.16;4988779;28;8846;-87
2023/11/03 00:57:39;;;;;;;;;;;;;;;25.11;43.11;91582.25;5011470;28;9126;-87
2023/11/03 01:00:12;;;;;;;;;;;;;;;25.19;42.84;91593.09;5011279;28;7030;-87
2023/11/03 01:02:59;;;;;;;;;;;;;;;25.19;42.91;91591.09;4988776;28;7268;-88
2023/11/03 01:05:26;;;;;;;;;;;;;;;25.19;42.98;91576.59;4999731;28;7543;-87
2023/11/03 01:07:52;;;;;;;;;;;;;;;25.19;42.74;91582.09;4989013;28;9116;-88
2023/11/03 01:10:20;;;;;;;;;;;;;;;25.17;42.66;91568.94;5009562;28;8365;-87
2023/11/03 01:12:51;;;;;;;;;;;;;;;25.19;43.57;91576.59;5010095;28;9785;-88
2023/11/03 01:15:21;;;;;;;;;;;;;;;25.18;43.04;91566.91;4993154;28;8777;-89
2023/11/03 01:17:50;;;;;;;;;;;;;;;25.11;42.52;91557.50;5001558;28;7205;-87
2023/11/03 01:20:27;;;;;;;;;;;;;;;25.19;42.82;91565.59;5000504;28;7270;-87
2023/11/03 01:22:58;;;;;;;;;;;;;;;25.16;43.37;91558.53;4986878;28;8563;-88
2023/11/03 01:25:24;;;;;;;;;;;;;;;25.13;42.53;91545.91;4993063;28;7080;-87
2023/11/03 01:27:51;;;;;;;;;;;;;;;25.18;43.13;91553.91;4994051;28;7278;-88
2023/11/03 01:30:20;;;;;;;;;;;;;;;25.17;42.87;91551.69;5010069;28;7112;-88
2023/11/03 01:32:57;;;;;;;;;;;;;;;25.15;42.96;91544.03;4989391;28;8780;-89
2023/11/03 01:35:26;;;;;;;;;;;;;;;25.18;43.01;91555.91;5012564;28;7279;-88
2023/11/03 01:37:59;;;;;;;;;;;;;;;25.13;43.08;91559.66;4994612;28;8751;-89
2023/11/03 01:40:43;;;;;;;;;;;;;;;25.17;43.23;91573.72;4993922;28;7506;-89
2023/11/03 01:43:09;;;;;;;;;;;;;;;25.15;42.64;91559.81;4990173;28;9338;-90
2023/11/03 01:45:42;;;;;;;;;;;;;;;25.16;42.77;91569.53;5016938;28;7212;-89
2023/11/03 01:48:09;;;;;;;;;;;;;;;25.17;43.04;91568.22;4988108;28;9010;-89
2023/11/03 01:50:36;;;;;;;;;;;;;;;25.21;42.88;91571.25;4993780;28;8615;-90
2023/11/03 01:53:03;;;;;;;;;;;;;;;25.18;43.08;91566.91;4989288;28;9007;-90
2023/11/03 01:55:33;;;;;;;;;;;;;;;25.19;42.71;91554.59;4992738;28;7278;-89
2023/11/03 01:58:00;;;;;;;;;;;;;;;25.17;42.99;91552.44;4992957;28;8944;-89
2023/11/03 02:00:36;;;;;;;;;;;;;;;25.15;42.99;91548.81;5006459;28;7259;-89
2023/11/03 02:03:13;;;;;;;;;;;;;;;25.14;43.15;91544.63;4994052;28;7248;-89
2023/11/03 02:05:43;;;;;;;;;;;;;;;25.17;43.15;91548.94;4993815;28;9324;-89
2023/11/03 02:08:15;;;;;;;;;;;;;;;25.18;42.91;91553.91;5015744;28;6873;-89
2023/11/03 02:10:47;;;;;;;;;;;;;;;25.18;42.64;91558.66;4993867;28;9230;-89
2023/11/03 02:13:17;;;;;;;;;;;;;;;25.16;42.82;91559.25;4991598;28;9435;-89
2023/11/03 02:15:57;;;;;;;;;;;;;;;25.17;42.59;91568.94;4989878;28;8781;-89
2023/11/03 02:18:27;;;;;;;;;;;;;;;25.17;42.55;91565.44;4997740;28;7273;-89
2023/11/03 02:20:56;;;;;;;;;;;;;;;25.11;43.05;91563.00;4990117;28;8990;-89
2023/11/03 02:23:31;;;;;;;;;;;;;;;25.15;42.77;91577.03;4985750;28;7241;-89
2023/11/03 02:25:56;;;;;;;;;;;;;;;25.14;42.83;91575.56;4992400;28;9040;-89
2023/11/03 02:28:28;;;;;;;;;;;;;;;25.16;43.08;91572.28;4990019;28;8687;-89
2023/11/03 02:30:56;;;;;;;;;;;;;;;25.16;42.66;91578.50;5013190;28;8017;-89
2023/11/03 02:33:26;;;;;;;;;;;;;;;25.21;42.44;91579.50;5012763;28;8913;-88
2023/11/03 02:35:54;;;;;;;;;;;;;;;25.19;42.75;91571.84;4984625;28;8971;-89
2023/11/03 02:38:24;;;;;;;;;;;;;;;25.10;42.70;91569.78;5009257;28;7039;-89
2023/11/03 02:40:55;;;;;;;;;;;;;;;25.16;42.26;91567.50;4983916;28;9153;-89
2023/11/03 02:43:23;;;;;;;;;;;;;;;25.19;42.79;91579.34;4990738;28;7054;-91
2023/11/03 02:45:50;;;;;;;;;;;;;;;25.17;43.28;91574.44;4989570;28;7054;-91
2023/11/03 02:48:23;;;;;;;;;;;;;;;25.14;42.66;91572.81;5008326;28;6903;-91
2023/11/03 02:51:20;;;;;;;;;;;;;;;25.19;42.79;91576.59;4991716;28;7294;-91
2023/11/03 02:54:04;;;;;;;;;;;;;;;25.18;42.78;91577.91;4944422;28;7084;-91
2023/11/03 02:56:30;;;;;;;;;;;;;;;25.18;42.67;91577.91;4942735;28;8919;-92
2023/11/03 02:59:09;;;;;;;;;;;;;;;25.14;42.58;91574.88;4937240;28;7293;-92
2023/11/03 03:01:47;;;;;;;;;;;;;;;25.17;43.04;91579.22;4924986;28;9013;-92
2023/11/03 03:04:13;;;;;;;;;;;;;;;25.16;42.43;91577.78;4945438;28;8667;-92
2023/11/03 03:06:46;;;;;;;;;;;;;;;25.16;43.40;91586.75;4934144;28;9040;-92
2023/11/03 03:09:15;;;;;;;;;;;;;;;25.07;43.02;91578.47;4936093;28;7493;-92
2023/11/03 03:12:03;;;;;;;;;;;;;;;25.15;43.04;91579.78;4929224;28;9008;-92
2023/11/03 03:14:39;;;;;;;;;;;;;;;25.15;42.89;91592.81;4934831;28;8753;-91
2023/11/03 03:17:05;;;;;;;;;;;;;;;25.16;42.84;91588.78;4928024;28;8723;-92
2023/11/03 03:19:32;;;;;;;;;;;;;;;25.13;42.61;91593.41;4928255;28;8711;-92
2023/11/03 03:21:58;;;;;;;;;;;;;;;25.15;43.05;91596.28;4934905;28;9203;-92
2023/11/03 03:24:29;;;;;;;;;;;;;;;25.14;43.04;91602.38;4931799;28;7780;-92
2023/11/03 03:27:00;;;;;;;;;;;;;;;25.15;42.57;91615.53;4936177;28;7245;-92
2023/11/03 03:29:27;;;;;;;;;;;;;;;25.10;43.03;91622.03;4956613;28;7359;-92
2023/11/03 03:32:02;;;;;;;;;;;;;;;25.16;42.49;91611.50;4990198;28;7285;-91
2023/11/03 03:34:47;;;;;;;;;;;;;;;25.17;43.12;91617.72;5001394;28;8785;-91
2023/11/03 03:37:14;;;;;;;;;;;;;;;25.15;43.25;91625.81;5002187;28;8690;-91
2023/11/03 03:39:42;;;;;;;;;;;;;;;25.15;42.90;91612.78;4998170;28;9155;-92
2023/11/03 03:42:11;;;;;;;;;;;;;;;25.18;43.23;91619.19;4998578;28;8854;-91
2023/11/03 03:44:47;;;;;;;;;;;;;;;25.18;42.88;91610.94;4992781;28;7422;-92
2023/11/03 03:47:14;;;;;;;;;;;;;;;25.18;43.00;91613.69;4989165;28;8835;-91
2023/11/03 03:49:42;;;;;;;;;;;;;;;25.16;43.32;91610.78;5012284;28;8827;-91
2023/11/03 03:52:11;;;;;;;;;;;;;;;25.16;42.37;91617.00;4998342;28;9446;-91
2023/11/03 03:54:37;;;;;;;;;;;;;;;25.17;42.44;91612.22;4995076;28;7214;-91
2023/11/03 03:57:05;;;;;;;;;;;;;;;25.13;43.07;91606.41;4998731;28;6853;-92
2023/11/03 03:59:41;;;;;;;;;;;;;;;25.12;42.61;91610.47;5011204;28;7360;-91
2023/11/03 04:02:08;;;;;;;;;;;;;;;25.16;42.33;91614.25;4994345;28;8853;-88
2023/11/03 04:04:37;;;;;;;;;;;;;;;25.17;42.75;91609.47;4995708;28;8782;-87
2023/11/03 04:07:10;;;;;;;;;;;;;;;25.17;42.79;91615.69;4998291;28;6868;-87
2023/11/03 04:09:38;;;;;;;;;;;;;;;25.19;42.66;91631.63;4992783;28;7348;-88
2023/11/03 04:12:08;;;;;;;;;;;;;;;25.12;42.48;91615.97;5015798;28;7286;-88
2023/11/03 04:14:40;;;;;;;;;;;;;;;25.15;42.43;91626.53;5004414;28;8770;-87
2023/11/03 04:17:26;;;;;;;;;;;;;;;25.21;42.93;91640.75;4998530;28;7230;-88
2023/11/03 04:19:52;;;;;;;;;;;;;;;25.19;42.55;91634.38;5009448;28;7516;-88
2023/11/03 04:22:29;;;;;;;;;;;;;;;25.19;42.57;91639.88;4998202;28;6994;-88
2023/11/03 04:24:56;;;;;;;;;;;;;;;25.17;42.57;91643.19;4998375;28;8467;-87
2023/11/03 04:27:23;;;;;;;;;;;;;;;25.18;42.71;91635.69;4996402;28;7738;-87
2023/11/03 04:30:17;;;;;;;;;;;;;;;25.19;41.99;91631.63;5016824;28;7069;-87
2023/11/03 04:32:47;;;;;;;;;;;;;;;25.17;42.82;91634.22;4955565;28;9149;-87
2023/11/03 04:35:20;;;;;;;;;;;;;;;25.12;42.42;91635.94;4969104;28;7271;-87
2023/11/03 04:37:59;;;;;;;;;;;;;;;25.19;42.51;91648.13;4961212;28;10239;-87
2023/11/03 04:40:35;;;;;;;;;;;;;;;25.17;42.48;91639.72;4960210;28;7272;-87
2023/11/03 04:43:03;;;;;;;;;;;;;;;25.15;42.54;91643.06;4958883;28;9100;-89
2023/11/03 04:45:31;;;;;;;;;;;;;;;25.21;42.89;91648.28;4957914;28;9017;-87
2023/11/03 04:47:58;;;;;;;;;;;;;;;25.19;42.58;91648.84;4956946;28;9060;-88
2023/11/03 04:50:25;;;;;;;;;;;;;;;25.21;42.18;91640.03;4963837;28;8790;-87
2023/11/03 04:52:53;;;;;;;;;;;;;;;25.19;42.09;91648.13;4957820;28;7418;-87
2023/11/03 04:55:51;;;;;;;;;;;;;;;25.20;42.59;91649.59;4971891;28;7240;-87
2023/11/03 04:58:25;;;;;;;;;;;;;;;25.21;42.67;91645.53;4863158;29;7037;-87
2023/11/03 05:00:54;;;;;;;;;;;;;;;25.18;42.58;91646.69;4865863;29;9072;-89
2023/11/03 05:03:28;;;;;;;;;;;;;;;25.12;42.42;91641.44;4863333;29;7116;-87
2023/11/03 05:05:56;;;;;;;;;;;;;;;25.16;43.21;91654.78;4863120;29;7066;-88
2023/11/03 05:08:22;;;;;;;;;;;;;;;25.17;42.67;91651.44;4864279;29;7175;-87
2023/11/03 05:11:01;;;;;;;;;;;;;;;25.14;42.66;91652.59;4916611;29;7588;-89
2023/11/03 05:13:28;;;;;;;;;;;;;;;25.14;42.73;91647.09;4916495;29;9297;-87
2023/11/03 05:16:05;;;;;;;;;;;;;;;25.18;42.75;91658.41;4912151;29;9064;-87
2023/11/03 05:18:34;;;;;;;;;;;;;;;25.21;42.36;91667.53;4898251;29;7319;-88
2023/11/03 05:21:03;;;;;;;;;;;;;;;25.20;42.21;91669.56;4903464;29;7239;-89
2023/11/03 05:23:30;;;;;;;;;;;;;;;25.20;42.54;91668.84;4913413;29;9215;-88
2023/11/03 05:25:58;;;;;;;;;;;;;;;25.14;42.36;91669.09;4899906;29;9071;-87
2023/11/03 05:28:25;;;;;;;;;;;;;;;25.18;42.73;91663.91;4918916;29;7088;-88
2023/11/03 05:31:05;;;;;;;;;;;;;;;25.19;42.88;91659.84;4908605;29;8942;-87
2023/11/03 05:33:34;;;;;;;;;;;;;;;25.19;42.60;91657.09;4917602;28;7115;-88
2023/11/03 05:36:02;;;;;;;;;;;;;;;25.16;42.21;91652.78;5005113;28;7291;-88
2023/11/03 05:39:05;;;;;;;;;;;;;;;25.15;42.89;91648.56;4993895;28;7048;-87
2023/11/03 05:41:36;;;;;;;;;;;;;;;25.20;42.38;91655.81;4963070;28;7611;-88
2023/11/03 05:44:12;;;;;;;;;;;;;;;25.21;43.09;91651.75;4955037;28;7314;-88
2023/11/03 05:46:42;;;;;;;;;;;;;;;25.17;43.00;91656.22;4954842;28;8755;-88
2023/11/03 05:49:27;;;;;;;;;;;;;;;25.16;43.24;91658.28;4961913;28;6882;-88
2023/11/03 05:51:59;;;;;;;;;;;;;;;25.12;43.16;91649.69;4968574;28;7037;-88
2023/11/03 05:54:26;;;;;;;;;;;;;;;25.14;43.02;91635.38;4970136;28;8750;-88
2023/11/03 05:57:06;;;;;;;;;;;;;;;25.19;42.45;91648.13;4966588;28;8734;-90
2023/11/03 05:59:33;;;;;;;;;;;;;;;25.18;42.43;91657.69;4958504;28;9188;-89
2023/11/03 06:01:59;;;;;;;;;;;;;;;25.19;42.97;91662.59;4959350;28;8612;-89
2023/11/03 06:04:37;;;;;;;;;;;;;;;25.16;42.88;91669.28;4957297;28;7097;-89
2023/11/03 06:07:17;;;;;;;;;;;;;;;25.12;42.84;91666.19;4953203;28;8767;-88
2023/11/03 06:09:45;;;;;;;;;;;;;;;25.12;42.86;91671.69;4961680;28;7472;-89
2023/11/03 06:12:15;;;;;;;;;;;;;;;25.07;43.54;91666.47;4956339;28;8833;-89
2023/11/03 06:14:43;;;;;;;;;;;;;;;25.11;43.09;91683.28;4966843;28;7033;-90
2023/11/03 06:17:09;;;;;;;;;;;;;;;25.07;43.06;91671.97;4973202;28;7032;-89
2023/11/03 06:19:37;;;;;;;;;;;;;;;25.12;43.25;91687.50;5004644;28;7747;-88
2023/11/03 06:22:06;;;;;;;;;;;;;;;25.07;43.71;91694.69;4990158;28;9215;-88
2023/11/03 06:24:33;;;;;;;;;;;;;;;25.13;43.24;91699.94;4984851;28;8613;-89
2023/11/03 06:27:05;;;;;;;;;;;;;;;25.13;43.40;91706.16;4987474;28;8834;-88
2023/11/03 06:29:31;;;;;;;;;;;;;;;25.05;43.44;91702.78;4991860;28;7358;-88
2023/11/03 06:31:57;;;;;;;;;;;;;;;25.06;43.57;91711.75;4989413;28;7352;-88
2023/11/03 06:34:23;;;;;;;;;;;;;;;25.17;43.32;91722.97;4990307;28;9043;-88
2023/11/03 06:36:54;;;;;;;;;;;;;;;25.17;43.28;91717.47;4991614;28;8775;-88
2023/11/03 06:39:23;;;;;;;;;;;;;;;25.18;43.24;91726.44;4992470;28;7284;-89
2023/11/03 06:41:57;;;;;;;;;;;;;;;25.17;42.52;91730.50;4991601;28;7660;-89
2023/11/03 06:44:25;;;;;;;;;;;;;;;25.16;42.73;91740.06;5002942;28;8614;-89
2023/11/03 06:47:04;;;;;;;;;;;;;;;25.17;42.38;91744.97;4992446;28;6998;-90
2023/11/03 06:49:34;;;;;;;;;;;;;;;25.13;41.73;91752.19;4993129;28;7237;-89
2023/11/03 06:52:01;;;;;;;;;;;;;;;25.09;41.68;91740.88;4991595;28;9225;-89
2023/11/03 06:54:32;;;;;;;;;;;;;;;25.06;41.86;91745.50;4992546;28;7328;-89
2023/11/03 06:57:06;;;;;;;;;;;;;;;25.07;42.03;91755.22;4992362;28;9031;-89
2023/11/03 06:59:41;;;;;;;;;;;;;;;25.10;42.57;91753.34;4991645;28;7034;-88
2023/11/03 07:02:22;;;;;;;;;;;;;;;25.07;42.41;91751.72;4992609;28;7054;-89
2023/11/03 07:05:00;;;;;;;;;;;;;;;25.12;41.67;91759.00;4991371;28;7028;-88
2023/11/03 07:07:36;;;;;;;;;;;;;;;25.08;42.40;91755.91;4992476;28;9015;-88
2023/11/03 07:10:04;;;;;;;;;;;;;;;25.08;41.54;91756.66;5008668;28;7275;-89
2023/11/03 07:12:37;;;;;;;;;;;;;;;25.02;42.68;91741.69;5003188;28;9340;-88
2023/11/03 07:15:06;;;;;;;;;;;;;;;25.06;42.73;91753.00;4990864;28;7173;-89
2023/11/03 07:17:34;;;;;;;;;;;;;;;25.08;42.84;91764.16;5004828;28;9713;-90
2023/11/03 07:20:08;;;;;;;;;;;;;;;25.09;42.58;91754.63;5008526;28;9046;-89
2023/11/03 07:22:39;;;;;;;;;;;;;;;25.11;42.81;91766.50;4991541;28;9038;-92
2023/11/03 07:25:08;;;;;;;;;;;;;;;25.09;42.33;91763.59;5006028;28;8770;-91
2023/11/03 07:27:47;;;;;;;;;;;;;;;25.07;42.34;91766.22;4989055;28;8843;-91
2023/11/03 07:30:14;;;;;;;;;;;;;;;25.04;42.98;91766.59;5007770;28;9001;-91
2023/11/03 07:32:44;;;;;;;;;;;;;;;25.02;43.15;91769.94;4989966;28;9016;-92
2023/11/03 07:35:14;;;;;;;;;;;;;;;25.10;42.94;91778.09;4992033;28;8047;-91
2023/11/03 07:37:47;;;;;;;;;;;;;;;25.11;43.02;91780.28;4992016;28;7513;-92
2023/11/03 07:40:41;;;;;;;;;;;;;;;25.09;42.56;91773.88;4994047;28;7366;-91
2023/11/03 07:43:10;;;;;;;;;;;;;;;25.13;42.90;91782.44;4968700;28;8926;-91
2023/11/03 07:45:38;;;;;;;;;;;;;;;25.10;42.87;91784.31;4955270;28;9416;-91
2023/11/03 07:48:11;;;;;;;;;;;;;;;25.15;43.26;91791.56;4953481;28;7283;-91
2023/11/03 07:50:41;;;;;;;;;;;;;;;25.18;43.40;91789.72;4950892;29;8643;-91
2023/11/03 07:53:27;;;;;;;;;;;;;;;25.16;43.29;91792.31;4948045;28;8740;-91
2023/11/03 07:55:56;;;;;;;;;;;;;;;25.17;43.01;91793.75;4954325;28;8986;-91
2023/11/03 07:58:29;;;;;;;;;;;;;;;25.16;43.00;91789.56;4949646;28;8838;-91
2023/11/03 08:01:05;;;;;;;;;;;;;;;25.12;43.81;91792.72;4948967;29;9659;-93
2023/11/03 08:03:31;;;;;;;;;;;;;;;25.19;43.00;91807.66;4944971;28;6896;-92
2023/11/03 08:05:59;;;;;;;;;;;;;;;25.13;42.84;91801.69;4949099;28;7323;-93
2023/11/03 08:08:25;;;;;;;;;;;;;;;25.19;43.55;91813.16;4954179;28;8762;-92
2023/11/03 08:10:53;;;;;;;;;;;;;;;25.11;43.08;91801.53;4954868;28;8561;-92
2023/11/03 08:13:24;;;;;;;;;;;;;;;25.20;43.38;91826.38;4970600;28;7037;-93
2023/11/03 08:15:51;;;;;;;;;;;;;;;25.14;43.34;91806.63;4953495;28;9122;-92
2023/11/03 08:18:23;;;;;;;;;;;;;;;25.17;43.01;91819.25;4969155;28;8751;-94
2023/11/03 08:20:55;;;;;;;;;;;;;;;25.20;43.37;91817.38;4993853;28;6872;-92
2023/11/03 08:23:26;;;;;;;;;;;;;;;25.18;43.16;91823.47;4990227;28;8670;-91
2023/11/03 08:25:54;;;;;;;;;;;;;;;25.10;42.92;91819.34;4993624;28;8818;-93
2023/11/03 08:28:28;;;;;;;;;;;;;;;25.22;42.76;91845.03;4993876;28;8703;-91
2023/11/03 08:30:56;;;;;;;;;;;;;;;25.21;42.74;91841.56;5009203;28;8765;-92
2023/11/03 08:33:24;;;;;;;;;;;;;;;25.20;43.12;91840.13;4995305;28;9140;-91
2023/11/03 08:35:56;;;;;;;;;;;;;;;25.20;43.69;91831.88;4989489;28;9230;-91
2023/11/03 08:38:23;;;;;;;;;;;;;;;25.17;43.09;91832.25;5007361;28;7272;-90
2023/11/03 08:41:05;;;;;;;;;;;;;;;25.22;43.66;91845.03;5015755;28;8932;-90
2023/11/03 08:43:43;;;;;;;;;;;;;;;25.22;43.83;91840.28;4990326;28;6997;-91
2023/11/03 08:46:09;;;;;;;;;;;;;;;25.22;43.13;91851.28;5010730;28;7671;-91
2023/11/03 08:48:37;;;;;;;;;;;;;;;25.23;43.18;91841.72;4990817;28;8894;-91
2023/11/03 08:51:03;;;;;;;;;;;;;;;25.26;42.84;91850.84;5009618;28;7056;-94
2023/11/03 08:53:33;;;;;;;;;;;;;;;25.21;43.13;91838.81;4999460;28;7145;-92
2023/11/03 08:56:02;;;;;;;;;;;;;;;25.30;43.11;91853.91;4995389;28;7133;-91
2023/11/03 08:58:30;;;;;;;;;;;;;;;25.25;43.20;91855.63;5006064;28;7283;-92
2023/11/03 09:01:07;;;;;;;;;;;;;;;25.22;43.55;91856.03;4992435;28;8755;-91
2023/11/03 09:03:41;;;;;;;;;;;;;;;25.24;43.73;91864.47;5006819;28;8679;-93
2023/11/03 09:06:12;;;;;;;;;;;;;;;25.20;43.52;91872.41;4989741;28;9242;-91
2023/11/03 09:08:39;;;;;;;;;;;;;;;25.21;43.66;91871.09;4984610;28;7068;-91
2023/11/03 09:11:06;;;;;;;;;;;;;;;25.18;43.11;91866.75;5007917;28;7105;-91
2023/11/03 09:13:33;;;;;;;;;;;;;;;25.16;43.31;91874.84;4995334;28;7211;-92
2023/11/03 09:16:32;;;;;;;;;;;;;;;25.20;43.88;91872.41;4992672;28;7259;-91
2023/11/03 09:19:03;;;;;;;;;;;;;;;25.22;44.11;91883.56;4994150;28;8738;-91
2023/11/03 09:21:36;;;;;;;;;;;;;;;25.20;43.70;91877.91;4994230;28;8756;-91
2023/11/03 09:24:05;;;;;;;;;;;;;;;25.22;43.65;91884.28;4994260;28;8979;-91
2023/11/03 09:26:44;;;;;;;;;;;;;;;25.23;43.58;91882.97;4994825;28;8987;-92
2023/11/03 09:29:10;;;;;;;;;;;;;;;25.27;43.50;91893.59;4994980;28;7232;-92
2023/11/03 09:31:47;;;;;;;;;;;;;;;25.25;42.99;91885.19;4990565;28;8766;-92
2023/11/03 09:34:39;;;;;;;;;;;;;;;25.25;43.42;91893.44;4987317;28;9216;-92
2023/11/03 09:37:10;;;;;;;;;;;;;;;25.24;43.56;91883.72;4948782;28;7086;-92
2023/11/03 09:39:39;;;;;;;;;;;;;;;25.25;43.28;91896.19;4938779;28;9016;-92
2023/11/03 09:42:08;;;;;;;;;;;;;;;25.26;42.98;91894.88;4933853;28;7015;-89
2023/11/03 09:44:37;;;;;;;;;;;;;;;25.25;43.42;91885.19;4954771;28;7322;-88
2023/11/03 09:47:05;;;;;;;;;;;;;;;25.27;43.13;91885.34;4934625;28;7151;-89
2023/11/03 09:49:33;;;;;;;;;;;;;;;25.28;43.90;91889.53;4951685;28;9895;-88
2023/11/03 09:52:10;;;;;;;;;;;;;;;25.28;43.48;91884.03;4930004;28;8720;-89
2023/11/03 09:54:48;;;;;;;;;;;;;;;25.27;43.17;91888.09;4955176;28;8781;-87
2023/11/03 09:57:18;;;;;;;;;;;;;;;25.24;43.60;91886.47;4933714;28;9057;-88
2023/11/03 09:59:44;;;;;;;;;;;;;;;25.27;43.31;91885.34;4951907;28;8719;-88
2023/11/03 10:02:20;;;;;;;;;;;;;;;25.27;43.21;91877.09;4946571;28;9239;-89
2023/11/03 10:04:51;;;;;;;;;;;;;;;25.29;43.26;91891.00;4936396;28;7249;-88
2023/11/03 10:07:19;;;;;;;;;;;;;;;25.29;43.73;91891.72;4930674;28;9022;-88
2023/11/03 10:09:46;;;;;;;;;;;;;;;25.26;43.30;91884.59;4950128;28;7035;-89
2023/11/03 10:12:17;;;;;;;;;;;;;;;25.28;42.77;91904.03;4937407;28;8942;-88
2023/11/03 10:14:47;;;;;;;;;;;;;;;25.28;43.41;91890.25;4997195;28;7459;-89
2023/11/03 10:17:16;;;;;;;;;;;;;;;25.25;43.02;91891.38;4990398;28;9111;-89
2023/11/03 10:19:50;;;;;;;;;;;;;;;25.28;42.69;91893.03;4993472;28;7162;-90
2023/11/03 10:22:16;;;;;;;;;;;;;;;25.27;42.82;91890.84;5009362;28;8612;-90
2023/11/03 10:24:47;;;;;;;;;;;;;;;25.25;42.75;91883.13;4993776;28;8592;-89
2023/11/03 10:27:20;;;;;;;;;;;;;;;25.23;42.80;91880.22;4989039;28;6995;-89
2023/11/03 10:29:53;;;;;;;;;;;;;;;25.28;42.21;91892.28;4990766;28;8690;-89
2023/11/03 10:32:19;;;;;;;;;;;;;;;25.27;42.60;91888.09;4987697;28;8750;-90
2023/11/03 10:34:48;;;;;;;;;;;;;;;25.25;42.98;91882.44;4987734;28;7438;-89
2023/11/03 10:37:20;;;;;;;;;;;;;;;25.23;42.84;91880.22;4988961;28;7624;-89
2023/11/03 10:39:48;;;;;;;;;;;;;;;25.23;43.08;91885.00;4983915;28;6878;-89
2023/11/03 10:42:20;;;;;;;;;;;;;;;25.16;43.33;91866.56;4989741;28;8737;-89
2023/11/03 10:44:50;;;;;;;;;;;;;;;25.22;43.20;91886.31;4985525;28;8921;-90
2023/11/03 10:47:26;;;;;;;;;;;;;;;25.15;43.31;91868.59;5010038;28;7321;-89
2023/11/03 10:50:15;;;;;;;;;;;;;;;25.22;43.68;91889.06;5005681;28;7132;-89
2023/11/03 10:53:13;;;;;;;;;;;;;;;25.26;43.85;91872.88;4987914;28;7233;-90
2023/11/03 10:55:56;;;;;;;;;;;;;;;25.25;43.68;91866.63;4987706;28;9084;-90
2023/11/03 10:58:34;;;;;;;;;;;;;;;25.26;43.90;91865.34;4999836;28;7216;-90
2023/11/03 11:01:18;;;;;;;;;;;;;;;25.26;43.96;91864.63;5016653;28;7402;-90
2023/11/03 11:04:03;;;;;;;;;;;;;;;25.25;44.38;91865.94;5004538;28;9054;-90
2023/11/03 11:07:00;;;;;;;;;;;;;;;25.23;44.15;91858.22;4992287;28;7364;-90
2023/11/03 11:09:48;;;;;;;;;;;;;;;25.22;44.66;91856.03;4990255;28;7028;-88
2023/11/03 11:12:15;;;;;;;;;;;;;;;25.26;44.63;91856.38;5003697;28;8778;-89
2023/11/03 11:14:43;;;;;;;;;;;;;;;25.21;44.73;91855.31;4991624;28;7319;-89
2023/11/03 11:17:35;;;;;;;;;;;;;;;25.18;44.73;91856.47;4987948;28;9054;-90
2023/11/03 11:20:15;;;;;;;;;;;;;;;25.24;44.17;91856.19;4921599;29;9110;-89
2023/11/03 11:22:57;;;;;;;;;;;;;;;25.24;44.74;91858.97;4931874;28;7276;-88
2023/11/03 11:25:26;;;;;;;;;;;;;;;25.25;44.64;91860.44;4936554;28;8723;-89
2023/11/03 11:28:01;;;;;;;;;;;;;;;25.25;44.77;91855.63;4951830;28;8724;-89
2023/11/03 11:30:37;;;;;;;;;;;;;;;25.25;44.45;91852.16;4948382;28;8457;-89
2023/11/03 11:33:05;;;;;;;;;;;;;;;25.27;44.63;91857.81;4951523;29;7113;-89
2023/11/03 11:35:38;;;;;;;;;;;;;;;25.26;44.94;91856.38;4950666;28;7578;-89
2023/11/03 11:38:05;;;;;;;;;;;;;;;25.26;44.77;91846.09;4946277;28;8695;-89
2023/11/03 11:41:03;;;;;;;;;;;;;;;25.29;44.62;91844.22;4948891;28;7483;-89
2023/11/03 11:43:38;;;;;;;;;;;;;;;25.28;44.53;91848.25;4874437;29;8769;-89
2023/11/03 11:46:16;;;;;;;;;;;;;;;25.26;44.38;91843.34;4884812;29;8829;-89
2023/11/03 11:48:45;;;;;;;;;;;;;;;25.27;44.92;91850.28;4866909;29;7009;-89
2023/11/03 11:51:44;;;;;;;;;;;;;;;25.34;44.10;91851.47;4868483;29;9223;-89
2023/11/03 11:54:11;;;;;;;;;;;;;;;25.35;44.31;91847.44;4768393;29;7039;-90
2023/11/03 11:57:11;;;;;;;;;;;;;;;25.40;44.26;91851.97;4794500;29;7574;-91
2023/11/03 11:59:40;;;;;;;;;;;;;;;25.36;43.93;91848.88;4764015;29;7239;-90
2023/11/03 12:02:08;;;;;;;;;;;;;;;25.38;44.31;91847.03;4771073;30;8723;-89
2023/11/03 12:04:36;;;;;;;;;;;;;;;25.43;44.05;91853.59;4774255;29;9012;-88
2023/11/03 12:07:15;;;;;;;;;;;;;;;25.36;43.42;91835.88;4779592;29;8588;-89
2023/11/03 12:09:45;;;;;;;;;;;;;;;25.41;44.08;91848.66;4789530;29;6991;-89
2023/11/03 12:12:11;;;;;;;;;;;;;;;25.42;43.75;91843.91;4778801;29;9383;-89
2023/11/03 12:15:05;;;;;;;;;;;;;;;25.43;43.63;91848.84;4783416;29;7238;-90
2023/11/03 12:17:36;;;;;;;;;;;;;;;25.46;43.22;91846.97;4782946;29;8744;-90
2023/11/03 12:20:03;;;;;;;;;;;;;;;25.45;43.34;91847.53;4808489;29;8734;-90
2023/11/03 12:22:40;;;;;;;;;;;;;;;25.45;43.09;91853.06;4823963;29;6989;-90
2023/11/03 12:25:10;;;;;;;;;;;;;;;25.45;43.57;91853.06;4806594;29;6865;-90
2023/11/03 12:27:41;;;;;;;;;;;;;;;25.46;43.22;91849.72;4825277;29;8802;-89
2023/11/03 12:30:08;;;;;;;;;;;;;;;25.47;43.48;91853.91;4828062;29;7120;-89
2023/11/03 12:32:49;;;;;;;;;;;;;;;25.44;42.73;91838.56;4864185;29;7391;-89
2023/11/03 12:35:17;;;;;;;;;;;;;;;25.46;43.40;91852.47;4891321;29;8670;-89
2023/11/03 12:37:49;;;;;;;;;;;;;;;25.38;43.23;91841.53;4918710;28;8721;-89
2023/11/03 12:40:24;;;;;;;;;;;;;;;25.42;42.71;91852.16;4936079;29;8085;-88
2023/11/03 12:42:51;;;;;;;;;;;;;;;25.42;43.25;91852.16;4934591;29;7088;-89
2023/11/03 12:45:19;;;;;;;;;;;;;;;25.41;43.11;91850.66;4935113;29;7572;-88
2023/11/03 12:47:50;;;;;;;;;;;;;;;25.46;42.55;91862.75;4929277;29;7230;-89
2023/11/03 12:50:24;;;;;;;;;;;;;;;25.43;42.96;91865.34;4918898;29;8718;-89
2023/11/03 12:53:03;;;;;;;;;;;;;;;25.46;43.09;91871.72;4936386;29;8750;-89
2023/11/03 12:55:40;;;;;;;;;;;;;;;25.46;42.78;91868.97;4996302;28;8762;-89
2023/11/03 12:58:14;;;;;;;;;;;;;;;25.44;43.15;91866.06;5012687;28;9119;-89
2023/11/03 13:00:40;;;;;;;;;;;;;;;25.41;43.03;91861.66;4995224;28;6998;-89
2023/11/03 13:03:07;;;;;;;;;;;;;;;25.48;43.23;91871.91;4995214;28;9085;-89
2023/11/03 13:05:46;;;;;;;;;;;;;;;25.48;42.94;91865.66;4994546;28;7338;-89
2023/11/03 13:08:17;;;;;;;;;;;;;;;25.49;42.99;91869.88;4989695;28;8769;-89
2023/11/03 13:10:49;;;;;;;;;;;;;;;25.48;43.10;91869.13;5020758;28;7445;-89
2023/11/03 13:13:18;;;;;;;;;;;;;;;25.46;42.70;91863.47;4994764;28;8783;-89
2023/11/03 13:15:46;;;;;;;;;;;;;;;25.46;42.70;91863.47;4994025;28;9143;-89
2023/11/03 13:18:21;;;;;;;;;;;;;;;25.46;42.97;91866.22;5009766;28;7033;-89
2023/11/03 13:20:48;;;;;;;;;;;;;;;25.50;43.40;91865.81;4994535;28;7464;-89
2023/11/03 13:23:21;;;;;;;;;;;;;;;25.43;42.97;91857.09;5014914;28;8672;-89
2023/11/03 13:25:51;;;;;;;;;;;;;;;25.48;43.17;91869.13;4994844;28;9157;-89